Portada
METAR-TAF:

METAR-TAF

Aeroports :

Belgaum, Índia

latitud: 15-51-33N, longitud: 74-37-03E, altitud: 758 m

Observació

L'informe es va fer fa 37 minuts, a les 09:30 UTC
Vent 4 kt del Oest/Sud-Oest
Temperatura 32°C
Humitat 41%
Pressió 1012 hPa
Visibilitat 10 km o més
Núvols disperses a una alçada de 1500 ft

METAR: VOBM 060930Z 24004KT 9999 SCT015 32/17 Q1012

Hora: 15:37 (10:07 UTC)

Pronòstic

L'informe es va fer fa 2 hores i 7 minuts, a les 08:00 UTC
Pronòstic vàlid del 06 a les 09 UTC al 06 a les 18 UTC
Vent 5 kt del Est
Visibilitat: 6000 m
Escasses núvols a una alçada de 1500 ft
Temporalment
l' 06 a les 10 UTC al 06 a les 15 UTC
Visibilitat: 5000 m
Núvols disperses a una alçada de 1200 ft
Núvols disperses a una alçada de 2000 ft
Escasses núvols a una alçada de 2500 ft, Cumulonimbus.
Cel ennuvolat a una alçada de 8000 ft
tempesta, pluja, pluja

TAF: VOBM 060800Z 0609/0618 09005KT 6000 FEW015 TEMPO 0610/0615 5000 TSRA RA SCT012 SCT020 FEW025CB BKN080

Observacions i pronòstics meteorològics de més de 4000 aeroports (METAR i TAF).

Les estacions disponibles són els punts grocs i vermells al mapa.

Posi el ratolí al punt desitjat per veure el nom de l'estació.

Feu clic per veure les observacions i els pronòstics meteorològics.

Per canviar el mapa: feu clic els botons verds amb una creu de color negre per apropar; al botó verd amb un guió per allunyar la imatge; o en les fletxes verdes per a mapes adjacents.


METAR-TAF: